Time;durP1;ratioP1;P1;durP2;ratioP2;P2;SDS_P1;SDS_P2;PMS_P1;PMS_P2;Temp;Humidity;BMP_temperature;BMP_pressure;BME280_temperature;BME280_humidity;BME280_pressure;Samples;Min_cycle;Max_cycle;Signal;HPM_P1;HPM_P2
2023/05/09 00:01:35;;;;;;;12.73;4.57;;;14.30;99.90;;;;;;5090921;28;20051;-65
2023/05/09 00:04:01;;;;;;;8.98;4.32;;;14.30;99.90;;;;;;5090150;28;20040;-65
2023/05/09 00:06:27;;;;;;;10.70;4.80;;;14.30;99.90;;;;;;5090346;28;20046;-65
2023/05/09 00:08:56;;;;;;;9.35;3.95;;;14.30;99.90;;;;;;5089941;28;20465;-65
2023/05/09 00:11:22;;;;;;;11.83;4.47;;;14.20;99.90;;;;;;5091378;28;20070;-65
2023/05/09 00:13:49;;;;;;;10.20;4.32;;;14.30;99.90;;;;;;5089965;28;20295;-65
2023/05/09 00:16:16;;;;;;;9.68;3.92;;;14.20;99.90;;;;;;5091109;28;20126;-65
2023/05/09 00:18:42;;;;;;;11.65;3.67;;;14.20;99.90;;;;;;5091255;28;20051;-65
2023/05/09 00:21:09;;;;;;;11.85;4.53;;;14.10;99.90;;;;;;5089847;28;20071;-65
2023/05/09 00:23:36;;;;;;;8.13;3.33;;;14.10;99.90;;;;;;5090290;28;20040;-65
2023/05/09 00:26:02;;;;;;;10.77;4.28;;;14.10;99.90;;;;;;5089797;28;20044;-65
2023/05/09 00:28:28;;;;;;;8.80;3.70;;;14.10;99.90;;;;;;5089787;28;20043;-65
2023/05/09 00:30:54;;;;;;;12.25;5.00;;;14.10;99.90;;;;;;5072236;28;20036;-65
2023/05/09 00:33:20;;;;;;;13.13;4.28;;;14.00;99.90;;;;;;5089670;28;20040;-65
2023/05/09 00:35:46;;;;;;;13.05;4.68;;;14.00;99.90;;;;;;5088998;28;20036;-65
2023/05/09 00:38:12;;;;;;;11.90;3.83;;;14.00;99.90;;;;;;5089974;28;20040;-65
2023/05/09 00:40:38;;;;;;;11.93;4.28;;;13.90;99.90;;;;;;5089989;28;20525;-65
2023/05/09 00:43:04;;;;;;;13.15;4.43;;;13.90;99.90;;;;;;5090146;28;20040;-65
2023/05/09 00:45:30;;;;;;;12.05;4.20;;;14.00;99.90;;;;;;5089407;28;20054;-65
2023/05/09 00:47:56;;;;;;;9.80;3.60;;;14.00;99.90;;;;;;5089808;28;20466;-65
2023/05/09 00:50:23;;;;;;;11.25;3.83;;;14.00;99.90;;;;;;5089050;28;20043;-65
2023/05/09 00:52:50;;;;;;;10.73;4.05;;;14.00;99.90;;;;;;5089301;28;20043;-66
2023/05/09 00:55:17;;;;;;;7.63;3.35;;;14.00;99.90;;;;;;5089435;28;20069;-65
2023/05/09 00:57:43;;;;;;;12.43;4.40;;;14.00;99.90;;;;;;5088531;28;20051;-65
2023/05/09 01:00:13;;;;;;;9.90;3.60;;;14.00;99.90;;;;;;5089136;28;20044;-65
2023/05/09 01:02:46;;;;;;;9.82;4.10;;;14.00;99.90;;;;;;5089553;28;20259;-65
2023/05/09 01:05:12;;;;;;;9.25;3.67;;;14.00;99.90;;;;;;5089978;28;20036;-65
2023/05/09 01:07:54;;;;;;;12.48;3.97;;;14.10;99.90;;;;;;5089062;28;20544;-65
2023/05/09 01:10:42;;;;;;;8.98;4.10;;;14.10;99.90;;;;;;5089428;28;20043;-66
2023/05/09 01:13:23;;;;;;;11.20;4.32;;;14.00;99.90;;;;;;5090321;28;20044;-65
2023/05/09 01:16:04;;;;;;;10.63;4.68;;;14.10;99.90;;;;;;5089192;28;20436;-65
2023/05/09 01:18:36;;;;;;;10.68;4.28;;;14.00;99.90;;;;;;5088434;28;20551;-65
2023/05/09 01:21:07;;;;;;;13.30;4.50;;;14.10;99.90;;;;;;5090462;28;20085;-65
2023/05/09 01:24:04;;;;;;;11.73;4.05;;;14.00;99.90;;;;;;5088710;28;20215;-65
2023/05/09 01:26:55;;;;;;;8.07;4.13;;;14.00;99.90;;;;;;5088087;28;20040;-65
2023/05/09 01:29:35;;;;;;;8.30;3.80;;;14.00;99.90;;;;;;5071873;28;20040;-65
2023/05/09 01:32:08;;;;;;;10.23;4.05;;;14.00;99.90;;;;;;5089456;28;20032;-65
2023/05/09 01:34:36;;;;;;;9.77;4.05;;;14.00;99.90;;;;;;5089780;28;20040;-65
2023/05/09 01:37:04;;;;;;;11.05;3.75;;;14.00;99.90;;;;;;5088496;28;20135;-65
2023/05/09 01:39:32;;;;;;;14.00;4.90;;;14.00;99.90;;;;;;5087789;28;20036;-65
2023/05/09 01:42:02;;;;;;;11.10;4.28;;;14.00;99.90;;;;;;5088405;28;20040;-65
2023/05/09 01:44:36;;;;;;;9.05;3.65;;;14.00;99.90;;;;;;5089937;28;20047;-65
2023/05/09 01:47:03;;;;;;;10.43;4.32;;;14.00;99.90;;;;;;5088979;28;20486;-65
2023/05/09 01:49:32;;;;;;;12.98;4.20;;;14.00;99.90;;;;;;5089714;28;20556;-65
2023/05/09 01:52:03;;;;;;;17.30;4.60;;;14.00;99.90;;;;;;5089571;28;20046;-65
2023/05/09 01:54:31;;;;;;;14.52;4.75;;;14.00;99.90;;;;;;5087953;28;20371;-65
2023/05/09 01:56:57;;;;;;;13.88;4.30;;;14.00;99.90;;;;;;5089625;28;20040;-65
2023/05/09 01:59:25;;;;;;;15.50;5.53;;;14.00;99.90;;;;;;5088293;28;20058;-65
2023/05/09 02:01:53;;;;;;;9.52;4.05;;;13.90;99.90;;;;;;5087580;28;20115;-65
2023/05/09 02:04:20;;;;;;;9.32;3.25;;;13.90;99.90;;;;;;5089374;28;20040;-65
2023/05/09 02:06:50;;;;;;;10.73;3.78;;;14.00;99.90;;;;;;5087581;28;20036;-65
2023/05/09 02:09:19;;;;;;;16.38;4.78;;;14.00;99.90;;;;;;5071408;28;20035;-65
2023/05/09 02:11:45;;;;;;;;;;;14.00;99.90;;;;;;5088574;28;20071;-65
2023/05/09 02:14:12;;;;;;;11.05;4.90;;;14.00;99.90;;;;;;5086849;28;20365;-65
2023/05/09 02:16:39;;;;;;;12.52;4.30;;;14.00;99.90;;;;;;5087985;28;20044;-65
2023/05/09 02:19:05;;;;;;;11.93;5.90;;;14.00;99.90;;;;;;5088104;28;20470;-65
2023/05/09 02:21:31;;;;;;;13.38;4.50;;;14.00;99.90;;;;;;5088321;28;20071;-65
2023/05/09 02:23:57;;;;;;;16.60;5.20;;;14.00;99.90;;;;;;5089174;28;20130;-65
2023/05/09 02:26:27;;;;;;;13.02;4.65;;;13.90;99.90;;;;;;5088037;28;20036;-65
2023/05/09 02:28:54;;;;;;;10.02;4.80;;;14.00;99.90;;;;;;5087244;28;20450;-65
2023/05/09 02:31:22;;;;;;;11.55;5.38;;;14.00;99.90;;;;;;5087713;28;20043;-65
2023/05/09 02:33:50;;;;;;;11.68;5.07;;;13.90;99.90;;;;;;5088737;28;20123;-65
2023/05/09 02:36:17;;;;;;;13.82;5.93;;;14.00;99.90;;;;;;5088111;28;20044;-65
2023/05/09 02:38:43;;;;;;;14.32;5.28;;;14.00;99.90;;;;;;5087453;28;20541;-65
2023/05/09 02:41:14;;;;;;;20.25;6.03;;;13.90;99.90;;;;;;5087329;28;20040;-65
2023/05/09 02:43:40;;;;;;;15.05;5.15;;;13.90;99.90;;;;;;5087008;28;20044;-65
2023/05/09 02:46:07;;;;;;;15.05;5.47;;;13.90;99.90;;;;;;5087343;28;20059;-65
2023/05/09 02:48:33;;;;;;;14.10;4.70;;;14.00;99.90;;;;;;5086990;28;20071;-65
2023/05/09 02:50:59;;;;;;;17.33;5.90;;;13.90;99.90;;;;;;5087748;28;20033;-65
2023/05/09 02:53:24;;;;;;;11.40;5.32;;;13.90;99.90;;;;;;5087786;28;20534;-65
2023/05/09 02:55:50;;;;;;;11.43;5.05;;;13.90;99.90;;;;;;5070367;28;20047;-65
2023/05/09 02:58:16;;;;;;;20.48;6.65;;;13.90;99.90;;;;;;5087505;28;20490;-65
2023/05/09 03:00:42;;;;;;;15.65;4.85;;;13.90;99.90;;;;;;5088973;28;20024;-65
2023/05/09 03:03:08;;;;;;;13.48;5.15;;;13.90;99.90;;;;;;5088041;28;20398;-65
2023/05/09 03:05:34;;;;;;;17.70;5.03;;;13.90;99.90;;;;;;5087513;28;20044;-65
2023/05/09 03:07:59;;;;;;;15.23;5.57;;;13.90;99.90;;;;;;5087330;28;20176;-65
2023/05/09 03:10:25;;;;;;;9.88;4.28;;;13.90;99.90;;;;;;5088217;28;20032;-65
2023/05/09 03:12:51;;;;;;;11.07;4.05;;;13.90;99.90;;;;;;5070346;28;20032;-66
2023/05/09 03:15:17;;;;;;;11.70;5.63;;;13.90;99.90;;;;;;5087240;28;20345;-66
2023/05/09 03:17:43;;;;;;;14.48;4.97;;;13.90;99.90;;;;;;5088320;28;20485;-66
2023/05/09 03:20:09;;;;;;;10.45;4.57;;;13.90;99.90;;;;;;5087328;28;20407;-66
2023/05/09 03:22:35;;;;;;;12.52;4.40;;;13.90;99.90;;;;;;5088732;28;20283;-66
2023/05/09 03:25:01;;;;;;;15.18;5.60;;;13.90;99.90;;;;;;5088627;28;20044;-66
2023/05/09 03:27:27;;;;;;;15.07;4.57;;;13.90;99.90;;;;;;5091368;28;20514;-66
2023/05/09 03:29:53;;;;;;;16.02;5.18;;;13.90;99.90;;;;;;5074487;28;20082;-66
2023/05/09 03:32:19;;;;;;;12.43;4.43;;;13.90;99.90;;;;;;5091781;28;20036;-66
2023/05/09 03:34:45;;;;;;;10.55;4.15;;;13.90;99.90;;;;;;5091016;28;20047;-65
2023/05/09 03:37:12;;;;;;;12.85;4.32;;;13.90;99.90;;;;;;5090918;28;20093;-66
2023/05/09 03:39:37;;;;;;;10.55;4.43;;;13.90;99.90;;;;;;5090484;28;20494;-66
2023/05/09 03:42:03;;;;;;;15.15;5.32;;;13.90;99.90;;;;;;5092178;28;20051;-66
2023/05/09 03:44:29;;;;;;;10.45;4.70;;;13.90;99.90;;;;;;5093114;28;20102;-66
2023/05/09 03:46:55;;;;;;;15.93;6.20;;;13.90;99.90;;;;;;5093105;28;20028;-66
2023/05/09 03:49:21;;;;;;;13.50;6.03;;;13.90;99.90;;;;;;5093506;28;20367;-67
2023/05/09 03:51:47;;;;;;;17.90;5.93;;;13.90;99.90;;;;;;5090992;28;20078;-66
2023/05/09 03:54:12;;;;;;;15.82;5.35;;;13.90;99.90;;;;;;5091472;28;20047;-66
2023/05/09 03:56:38;;;;;;;14.40;6.32;;;13.90;99.90;;;;;;5092875;28;20043;-66
2023/05/09 03:59:04;;;;;;;18.13;5.97;;;13.90;99.90;;;;;;5074341;28;20044;-66
2023/05/09 04:01:30;;;;;;;15.48;5.63;;;13.90;99.90;;;;;;5093219;28;20047;-67
2023/05/09 04:03:58;;;;;;;15.52;6.05;;;13.90;99.90;;;;;;5091819;28;20129;-66
2023/05/09 04:06:24;;;;;;;14.65;6.63;;;13.90;99.90;;;;;;5109058;28;20043;-67
2023/05/09 04:08:50;;;;;;;14.55;5.65;;;14.00;99.90;;;;;;5091319;28;20097;-67
2023/05/09 04:11:16;;;;;;;13.75;5.53;;;13.90;99.90;;;;;;5091360;28;20055;-66
2023/05/09 04:13:43;;;;;;;15.13;6.22;;;14.00;99.90;;;;;;5090468;28;20040;-67
2023/05/09 04:16:12;;;;;;;20.05;7.60;;;14.00;99.90;;;;;;5091337;28;20069;-67
2023/05/09 04:18:41;;;;;;;18.23;7.00;;;14.00;99.90;;;;;;5091629;28;20040;-67
2023/05/09 04:21:07;;;;;;;14.35;6.50;;;14.00;99.90;;;;;;5092267;28;20111;-67
2023/05/09 04:23:32;;;;;;;19.05;7.97;;;14.00;99.90;;;;;;5090949;28;20048;-67
2023/05/09 04:25:58;;;;;;;16.55;6.20;;;14.00;99.90;;;;;;5091018;28;20036;-67
2023/05/09 04:28:24;;;;;;;14.80;6.07;;;14.00;99.90;;;;;;5090673;28;20040;-67
2023/05/09 04:30:51;;;;;;;19.92;7.10;;;14.10;99.90;;;;;;5091006;28;20397;-67
2023/05/09 04:33:16;;;;;;;14.75;6.47;;;14.00;99.90;;;;;;5091296;28;20074;-67
2023/05/09 04:35:42;;;;;;;13.00;6.47;;;14.00;99.90;;;;;;5090140;28;20441;-67
2023/05/09 04:38:08;;;;;;;17.58;5.80;;;14.10;99.90;;;;;;5091117;28;20036;-66
2023/05/09 04:40:34;;;;;;;16.73;6.13;;;14.10;99.90;;;;;;5090219;28;20486;-67
2023/05/09 04:43:00;;;;;;;15.45;6.55;;;14.00;99.90;;;;;;5091024;28;20047;-67
2023/05/09 04:45:26;;;;;;;15.52;6.32;;;14.10;99.90;;;;;;5092216;28;20642;-67
2023/05/09 04:47:52;;;;;;;17.83;7.25;;;14.10;99.90;;;;;;5090141;28;20051;-67
2023/05/09 04:50:18;;;;;;;20.98;7.60;;;14.10;99.90;;;;;;5091971;28;20040;-67
2023/05/09 04:52:44;;;;;;;14.93;4.88;;;14.10;99.90;;;;;;5091034;28;20131;-67
2023/05/09 04:55:10;;;;;;;18.92;6.32;;;14.10;99.90;;;;;;5090173;28;20052;-67
2023/05/09 04:57:35;;;;;;;19.65;7.15;;;14.10;99.90;;;;;;5090659;28;20044;-67
2023/05/09 05:00:01;;;;;;;24.25;7.15;;;14.10;99.90;;;;;;5073943;28;20052;-66
2023/05/09 05:02:27;;;;;;;18.88;7.20;;;14.10;99.90;;;;;;5090360;28;20042;-66
2023/05/09 05:04:53;;;;;;;17.73;6.97;;;14.10;99.90;;;;;;5073748;28;20560;-67
2023/05/09 05:07:19;;;;;;;17.23;6.65;;;14.10;99.90;;;;;;5091831;28;20067;-67
2023/05/09 05:09:44;;;;;;;18.17;6.10;;;14.10;99.90;;;;;;5091158;28;20036;-68
2023/05/09 05:12:10;;;;;;;19.90;6.10;;;14.20;99.90;;;;;;5090451;28;20123;-67
2023/05/09 05:14:36;;;;;;;20.33;6.78;;;14.20;99.90;;;;;;5091559;28;20085;-66
2023/05/09 05:17:02;;;;;;;18.95;7.82;;;14.20;99.90;;;;;;5089013;28;20056;-66
2023/05/09 05:19:28;;;;;;;16.23;6.70;;;14.20;99.90;;;;;;5089429;28;20040;-66
2023/05/09 05:21:54;;;;;;;19.67;8.23;;;14.30;99.90;;;;;;5089323;28;20134;-66
2023/05/09 05:24:19;;;;;;;19.08;6.82;;;14.30;99.90;;;;;;5090154;28;20079;-66
2023/05/09 05:26:45;;;;;;;24.67;7.18;;;14.40;99.90;;;;;;5072570;28;20485;-67
2023/05/09 05:29:11;;;;;;;17.10;7.82;;;14.40;99.90;;;;;;5089930;28;20036;-67
2023/05/09 05:31:37;;;;;;;23.48;7.35;;;14.50;99.90;;;;;;5089574;28;20047;-67
2023/05/09 05:34:03;;;;;;;23.92;9.25;;;14.50;99.90;;;;;;5090380;28;20085;-67
2023/05/09 05:36:28;;;;;;;18.88;8.57;;;14.60;99.90;;;;;;5089980;28;20148;-67
2023/05/09 05:38:54;;;;;;;16.63;6.47;;;14.60;99.90;;;;;;5090570;28;20036;-67
2023/05/09 05:41:21;;;;;;;18.15;6.88;;;14.70;99.90;;;;;;5088686;28;20462;-67
2023/05/09 05:43:47;;;;;;;16.10;6.32;;;14.80;99.90;;;;;;5087801;28;20090;-67
2023/05/09 05:46:12;;;;;;;19.23;7.60;;;14.80;99.90;;;;;;5089979;28;20067;-66
2023/05/09 05:48:39;;;;;;;20.88;7.43;;;14.90;99.90;;;;;;5087838;28;20398;-67
2023/05/09 05:51:06;;;;;;;20.35;8.05;;;15.00;99.90;;;;;;5088400;28;20032;-67
2023/05/09 05:53:33;;;;;;;27.10;10.20;;;14.90;99.90;;;;;;5089102;28;20036;-67
2023/05/09 05:56:00;;;;;;;21.67;10.25;;;15.00;99.90;;;;;;5089147;28;20055;-67
2023/05/09 05:58:26;;;;;;;28.33;9.05;;;15.00;99.90;;;;;;5087850;28;20036;-66
2023/05/09 06:00:52;;;;;;;19.30;8.40;;;15.00;99.90;;;;;;5087208;28;20040;-67
2023/05/09 06:03:18;;;;;;;19.73;7.30;;;15.00;99.90;;;;;;5086981;28;20040;-67
2023/05/09 06:05:46;;;;;;;19.73;8.70;;;15.00;99.90;;;;;;5086419;28;20055;-65
2023/05/09 06:08:12;;;;;;;32.15;10.65;;;15.10;99.90;;;;;;5087117;28;20054;-66
2023/05/09 06:10:38;;;;;;;21.00;9.35;;;15.10;99.90;;;;;;5088073;28;20441;-67
2023/05/09 06:13:04;;;;;;;23.80;9.77;;;15.10;99.90;;;;;;5086316;28;20054;-67
2023/05/09 06:15:30;;;;;;;26.27;9.93;;;15.10;99.90;;;;;;5086822;28;20055;-65
2023/05/09 06:17:56;;;;;;;22.92;9.23;;;15.20;99.90;;;;;;5089167;28;20127;-67
2023/05/09 06:20:22;;;;;;;23.48;10.80;;;15.20;99.90;;;;;;5088814;28;20114;-66
2023/05/09 06:22:48;;;;;;;29.23;12.38;;;15.30;99.90;;;;;;5075825;28;20039;-66
2023/05/09 06:25:14;;;;;;;19.48;10.27;;;15.40;99.90;;;;;;5092302;28;20052;-64
2023/05/09 06:27:41;;;;;;;24.38;12.00;;;15.40;99.90;;;;;;5071389;28;20052;-65
2023/05/09 06:30:07;;;;;;;24.85;10.13;;;15.50;99.90;;;;;;5088872;28;20172;-64
2023/05/09 06:32:33;;;;;;;24.48;11.98;;;15.50;99.90;;;;;;5089875;28;20119;-65
2023/05/09 06:34:59;;;;;;;22.50;10.18;;;15.50;99.90;;;;;;5090587;28;20107;-64
2023/05/09 06:37:25;;;;;;;25.85;9.30;;;15.50;99.90;;;;;;5072144;28;20509;-65
2023/05/09 06:39:50;;;;;;;25.48;10.70;;;15.50;99.90;;;;;;5089579;28;20118;-65
2023/05/09 06:42:16;;;;;;;26.75;11.20;;;15.50;99.90;;;;;;5088061;28;20058;-64
2023/05/09 06:44:42;;;;;;;29.92;11.23;;;15.60;99.90;;;;;;5089461;28;20036;-64
2023/05/09 06:47:09;;;;;;;24.88;9.35;;;15.60;99.90;;;;;;5088476;28;20071;-65
2023/05/09 06:49:34;;;;;;;21.17;9.98;;;15.60;99.90;;;;;;5088999;28;20040;-67
2023/05/09 06:52:00;;;;;;;22.63;9.65;;;15.60;99.90;;;;;;5090287;28;20097;-65
2023/05/09 06:54:26;;;;;;;22.90;9.63;;;15.60;99.90;;;;;;5088271;28;20413;-66
2023/05/09 06:56:52;;;;;;;21.50;9.35;;;15.60;99.90;;;;;;5090221;28;20048;-65
2023/05/09 06:59:18;;;;;;;20.17;10.68;;;15.70;99.90;;;;;;5088334;28;20047;-66
2023/05/09 07:01:44;;;;;;;24.20;9.70;;;15.70;99.90;;;;;;5093048;28;20115;-65
2023/05/09 07:04:10;;;;;;;24.63;10.95;;;15.70;99.90;;;;;;5076013;28;20040;-65
2023/05/09 07:06:35;;;;;;;21.23;10.43;;;15.80;99.90;;;;;;5092874;28;20123;-66
2023/05/09 07:09:03;;;;;;;17.40;9.00;;;15.70;99.90;;;;;;5093611;28;20044;-66
2023/05/09 07:11:36;;;;;;;24.27;10.68;;;15.70;99.90;;;;;;5094202;28;20486;-65
2023/05/09 07:14:02;;;;;;;21.85;10.75;;;15.80;99.90;;;;;;5093869;28;20513;-65
2023/05/09 07:16:28;;;;;;;20.27;9.05;;;15.80;99.90;;;;;;5091975;28;20517;-65
2023/05/09 07:18:54;;;;;;;21.23;8.18;;;15.90;99.90;;;;;;5093873;28;20047;-66
2023/05/09 07:21:20;;;;;;;22.77;8.65;;;15.90;99.90;;;;;;5092238;28;20077;-65
2023/05/09 07:23:46;;;;;;;14.00;7.80;;;15.90;99.90;;;;;;5092042;28;20165;-67
2023/05/09 07:26:12;;;;;;;17.42;7.85;;;16.00;99.90;;;;;;5092617;28;20478;-66
2023/05/09 07:28:38;;;;;;;12.77;7.47;;;16.00;99.90;;;;;;5092988;28;20042;-67
2023/05/09 07:31:04;;;;;;;17.00;8.00;;;16.10;99.90;;;;;;5093660;28;20062;-66
2023/05/09 07:33:34;;;;;;;17.60;7.63;;;16.10;99.90;;;;;;5092598;28;20097;-66
2023/05/09 07:36:01;;;;;;;17.08;6.65;;;16.10;99.90;;;;;;5092038;28;20402;-67
2023/05/09 07:38:26;;;;;;;15.23;7.40;;;16.10;99.90;;;;;;5092989;28;20040;-67
2023/05/09 07:40:52;;;;;;;8.35;5.28;;;16.10;99.90;;;;;;5091489;28;20075;-66
2023/05/09 07:43:18;;;;;;;12.43;6.13;;;16.10;99.90;;;;;;5090994;28;20048;-67
2023/05/09 07:45:45;;;;;;;13.35;7.03;;;16.10;99.90;;;;;;5091117;28;20418;-67
2023/05/09 07:48:11;;;;;;;12.30;6.03;;;16.10;99.90;;;;;;5074395;28;20051;-68
2023/05/09 07:50:37;;;;;;;10.85;4.90;;;16.00;99.90;;;;;;5090711;28;20723;-67
2023/05/09 07:53:03;;;;;;;9.27;5.50;;;16.00;99.90;;;;;;5091001;28;20127;-67
2023/05/09 07:55:28;;;;;;;10.32;5.70;;;15.90;99.90;;;;;;5091120;28;20055;-67
2023/05/09 07:57:54;;;;;;;11.32;6.15;;;15.90;99.90;;;;;;5090619;28;20051;-67
2023/05/09 08:00:23;;;;;;;12.45;6.85;;;15.90;99.90;;;;;;5090897;28;20608;-66
2023/05/09 08:02:52;;;;;;;11.25;5.97;;;15.80;99.90;;;;;;5074023;28;20059;-65
2023/05/09 08:05:18;;;;;;;13.18;4.82;;;15.80;99.90;;;;;;5091824;28;20114;-67
2023/05/09 08:07:45;;;;;;;9.27;6.13;;;15.80;99.90;;;;;;5090891;28;20504;-67
2023/05/09 08:10:11;;;;;;;9.88;5.53;;;15.80;99.90;;;;;;5090743;28;20119;-67
2023/05/09 08:12:37;;;;;;;15.75;5.78;;;15.80;99.90;;;;;;5072796;28;20055;-67
2023/05/09 08:15:03;;;;;;;10.02;5.18;;;15.80;99.90;;;;;;5090477;28;20060;-67
2023/05/09 08:17:29;;;;;;;9.55;4.97;;;15.80;99.90;;;;;;5090832;28;20040;-67
2023/05/09 08:19:55;;;;;;;13.38;4.65;;;15.80;99.90;;;;;;5090208;28;20635;-67
2023/05/09 08:22:21;;;;;;;9.02;4.07;;;15.80;99.90;;;;;;5091847;28;20044;-67
2023/05/09 08:24:47;;;;;;;9.68;4.93;;;15.90;99.90;;;;;;5089790;28;20040;-69
2023/05/09 08:27:13;;;;;;;12.38;5.25;;;15.90;99.90;;;;;;5090578;28;20124;-66
2023/05/09 08:29:40;;;;;;;12.23;5.10;;;16.00;99.90;;;;;;5090799;28;20067;-67
2023/05/09 08:32:06;;;;;;;11.38;5.18;;;16.00;99.90;;;;;;5090940;28;20044;-67
2023/05/09 08:34:33;;;;;;;9.52;4.35;;;16.00;99.90;;;;;;5090403;28;20126;-68
2023/05/09 08:37:00;;;;;;;11.18;5.43;;;16.10;99.90;;;;;;5092010;28;20048;-68
2023/05/09 08:39:26;;;;;;;12.98;6.07;;;16.20;99.90;;;;;;5091442;28;20042;-67
2023/05/09 08:41:56;;;;;;;9.55;4.47;;;16.30;99.90;;;;;;5092434;28;20401;-67
2023/05/09 08:44:23;;;;;;;9.07;3.78;;;16.40;99.90;;;;;;5092304;28;20040;-67
2023/05/09 08:46:53;;;;;;;13.75;6.28;;;16.50;99.90;;;;;;5090325;28;20040;-68
2023/05/09 08:49:20;;;;;;;11.30;5.63;;;16.60;99.90;;;;;;5074475;28;20043;-67
2023/05/09 08:51:47;;;;;;;15.07;6.40;;;16.70;99.90;;;;;;5091087;28;20136;-68
2023/05/09 08:54:14;;;;;;;14.10;5.82;;;16.70;99.90;;;;;;5090173;28;20130;-68
2023/05/09 08:56:40;;;;;;;16.17;6.15;;;16.70;99.90;;;;;;5092190;28;20114;-67
2023/05/09 08:59:07;;;;;;;10.35;6.05;;;16.80;99.90;;;;;;5092308;28;20052;-68
2023/05/09 09:01:34;;;;;;;11.05;4.57;;;16.90;99.90;;;;;;5090268;28;20127;-69
2023/05/09 09:04:01;;;;;;;10.98;5.75;;;16.90;99.90;;;;;;5090473;28;20633;-66
2023/05/09 09:06:29;;;;;;;7.25;4.25;;;17.00;99.90;;;;;;5090818;28;20039;-66
2023/05/09 09:08:59;;;;;;;11.82;6.03;;;17.00;99.90;;;;;;5091457;28;20397;-67
2023/05/09 09:11:30;;;;;;;11.50;5.63;;;17.00;99.90;;;;;;5091903;28;20504;-67
2023/05/09 09:14:00;;;;;;;9.90;5.82;;;17.10;99.90;;;;;;5089897;28;20052;-67
2023/05/09 09:16:30;;;;;;;13.07;5.65;;;17.10;99.90;;;;;;5092014;28;20050;-66
2023/05/09 09:18:57;;;;;;;12.38;5.80;;;17.20;99.90;;;;;;5091644;28;20497;-67
2023/05/09 09:21:23;;;;;;;12.35;6.07;;;17.20;99.90;;;;;;5089822;28;20032;-70
2023/05/09 09:23:54;;;;;;;13.95;6.15;;;17.30;99.90;;;;;;5089472;28;20051;-67
2023/05/09 09:26:20;;;;;;;11.02;6.10;;;17.30;99.90;;;;;;5090306;28;20040;-66
2023/05/09 09:28:48;;;;;;;12.13;4.93;;;17.30;99.90;;;;;;5091148;28;20102;-67
2023/05/09 09:31:29;;;;;;;9.95;5.00;;;17.40;99.90;;;;;;5090375;28;20691;-67
2023/05/09 09:34:03;;;;;;;8.40;5.45;;;17.40;99.90;;;;;;5090008;28;20043;-67
2023/05/09 09:36:35;;;;;;;11.20;5.95;;;17.30;99.90;;;;;;5072740;28;20043;-68
2023/05/09 09:39:05;;;;;;;14.05;5.55;;;17.30;99.90;;;;;;5090113;28;20075;-68
2023/05/09 09:41:35;;;;;;;11.27;5.78;;;17.30;99.90;;;;;;5091576;28;20122;-67
2023/05/09 09:44:13;;;;;;;9.15;5.32;;;17.30;99.90;;;;;;5089754;28;20040;-67
2023/05/09 09:46:51;;;;;;;11.65;6.28;;;17.40;99.90;;;;;;5091090;28;20044;-68
2023/05/09 09:49:22;;;;;;;10.70;4.97;;;17.40;99.90;;;;;;5072545;28;20047;-68
2023/05/09 09:51:53;;;;;;;13.18;6.38;;;17.40;99.90;;;;;;5091226;28;20568;-68
2023/05/09 09:54:19;;;;;;;8.48;5.07;;;17.50;99.90;;;;;;5072646;28;20044;-67
2023/05/09 09:56:53;;;;;;;7.68;5.18;;;17.50;99.90;;;;;;5089023;28;20673;-68
2023/05/09 09:59:24;;;;;;;10.80;5.53;;;17.60;99.90;;;;;;5089799;28;20044;-69
2023/05/09 10:02:05;;;;;;;14.73;6.38;;;17.60;99.90;;;;;;5089694;28;20071;-67
2023/05/09 10:04:34;;;;;;;10.15;5.15;;;17.60;99.90;;;;;;5088770;28;20076;-67
2023/05/09 10:07:05;;;;;;;10.85;5.97;;;17.60;99.90;;;;;;5090747;28;20042;-66
2023/05/09 10:09:32;;;;;;;6.20;4.55;;;17.60;99.90;;;;;;5090631;28;20066;-67
2023/05/09 10:12:03;;;;;;;9.52;4.80;;;17.70;99.90;;;;;;5089611;28;20127;-68
2023/05/09 10:14:30;;;;;;;12.52;4.10;;;17.70;99.90;;;;;;5090701;28;20060;-68
2023/05/09 10:16:57;;;;;;;9.05;5.35;;;17.60;99.90;;;;;;5089968;28;20052;-67
2023/05/09 10:19:26;;;;;;;7.10;3.95;;;17.60;99.90;;;;;;5089502;28;20550;-68
2023/05/09 10:21:54;;;;;;;7.30;4.10;;;17.60;99.90;;;;;;5090495;28;20054;-68
2023/05/09 10:24:34;;;;;;;11.47;5.03;;;17.50;99.90;;;;;;5088793;28;20051;-68
2023/05/09 10:27:04;;;;;;;;;;;17.40;99.90;;;;;;5089638;28;20055;-67
2023/05/09 10:29:45;;;;;;;8.18;4.00;;;17.40;99.90;;;;;;5072189;28;19923;-68
2023/05/09 10:32:21;;;;;;;9.73;4.47;;;17.20;99.90;;;;;;5088935;28;20390;-68
2023/05/09 10:34:51;;;;;;;7.65;4.47;;;17.20;99.90;;;;;;5090063;28;20465;-67
2023/05/09 10:37:19;;;;;;;7.15;4.65;;;17.20;99.90;;;;;;5089213;28;20040;-68
2023/05/09 10:39:46;;;;;;;12.40;4.85;;;17.10;99.90;;;;;;5088522;28;20048;-68
2023/05/09 10:42:13;;;;;;;12.98;4.80;;;17.20;99.90;;;;;;5089025;28;20036;-68
2023/05/09 10:44:39;;;;;;;9.70;4.75;;;17.10;99.90;;;;;;5089949;28;20044;-67
2023/05/09 10:47:05;;;;;;;8.30;4.80;;;17.10;99.90;;;;;;5088763;28;20036;-67
2023/05/09 10:49:31;;;;;;;10.40;5.47;;;17.00;99.90;;;;;;5088828;28;20040;-68
2023/05/09 10:51:57;;;;;;;7.18;4.47;;;17.00;99.90;;;;;;5088191;28;20043;-68
2023/05/09 10:54:32;;;;;;;5.90;3.72;;;17.10;99.90;;;;;;5088975;28;20284;-67
2023/05/09 10:57:06;;;;;;;14.65;5.50;;;17.00;99.90;;;;;;5088907;28;20098;-68
2023/05/09 10:59:41;;;;;;;8.60;4.03;;;17.00;99.90;;;;;;5088345;28;20044;-67
2023/05/09 11:02:19;;;;;;;9.15;4.72;;;17.00;99.90;;;;;;5089021;28;20043;-68
2023/05/09 11:04:45;;;;;;;11.23;5.15;;;17.00;99.90;;;;;;5088707;28;20108;-68
2023/05/09 11:07:29;;;;;;;8.10;3.75;;;17.00;99.90;;;;;;5088124;28;20040;-67
2023/05/09 11:10:16;;;;;;;11.05;5.65;;;17.00;99.90;;;;;;5072478;28;20040;-68
2023/05/09 11:12:53;;;;;;;10.40;4.25;;;17.00;99.90;;;;;;5089488;28;20044;-68
2023/05/09 11:15:19;;;;;;;9.10;3.67;;;16.90;99.90;;;;;;5088530;28;20052;-67
2023/05/09 11:18:03;;;;;;;8.30;3.90;;;16.90;99.90;;;;;;5089928;28;20101;-67
2023/05/09 11:20:32;;;;;;;11.07;4.68;;;16.90;99.90;;;;;;5088359;28;20460;-67
2023/05/09 11:22:58;;;;;;;10.95;4.97;;;16.90;99.90;;;;;;5088524;28;20583;-68
2023/05/09 11:25:27;;;;;;;8.60;3.90;;;16.90;99.90;;;;;;5071787;28;20079;-68
2023/05/09 11:27:57;;;;;;;7.22;3.70;;;16.90;99.90;;;;;;5100291;28;20032;-67
2023/05/09 11:30:38;;;;;;;9.30;4.47;;;16.90;99.90;;;;;;5108908;28;20086;-67
2023/05/09 11:33:05;;;;;;;9.60;4.97;;;17.00;99.90;;;;;;5109088;28;20044;-68
2023/05/09 11:35:33;;;;;;;7.72;4.22;;;17.00;99.90;;;;;;5108256;28;20086;-67
2023/05/09 11:38:04;;;;;;;10.65;4.60;;;17.10;99.90;;;;;;5108816;28;20394;-67
2023/05/09 11:40:31;;;;;;;10.73;4.07;;;17.20;99.90;;;;;;5110292;28;20067;-68
2023/05/09 11:42:59;;;;;;;8.32;4.28;;;17.20;99.90;;;;;;5110040;28;20386;-67
2023/05/09 11:45:30;;;;;;;7.30;4.28;;;17.30;99.90;;;;;;5108756;28;20040;-67
2023/05/09 11:47:57;;;;;;;10.73;4.45;;;17.40;99.90;;;;;;5113405;28;20036;-68
2023/05/09 11:50:23;;;;;;;7.45;4.38;;;17.40;99.90;;;;;;5112491;28;20040;-68
2023/05/09 11:52:50;;;;;;;12.07;5.28;;;17.40;99.90;;;;;;5112409;28;20516;-67
2023/05/09 11:55:18;;;;;;;8.65;3.88;;;17.30;99.90;;;;;;5111943;28;20436;-67
2023/05/09 11:57:52;;;;;;;8.73;4.22;;;17.30;99.90;;;;;;5112504;28;20075;-67
2023/05/09 12:00:23;;;;;;;7.65;4.15;;;17.40;99.90;;;;;;5112546;28;20051;-67
2023/05/09 12:02:49;;;;;;;10.25;3.90;;;17.40;99.90;;;;;;5112054;28;20039;-67
2023/05/09 12:05:20;;;;;;;7.20;3.97;;;17.40;99.90;;;;;;5113442;28;20505;-67
2023/05/09 12:07:47;;;;;;;8.82;3.65;;;17.40;99.90;;;;;;5113281;28;20040;-68
2023/05/09 12:10:19;;;;;;;7.85;3.50;;;17.40;99.90;;;;;;5112733;28;20035;-68
2023/05/09 12:12:47;;;;;;;6.72;3.03;;;17.30;99.90;;;;;;5113741;28;20046;-67
2023/05/09 12:15:13;;;;;;;6.32;3.25;;;17.20;99.90;;;;;;5113231;28;20612;-68
2023/05/09 12:17:43;;;;;;;5.97;2.88;;;17.10;99.90;;;;;;5111445;28;20043;-68
2023/05/09 12:20:09;;;;;;;8.05;3.60;;;17.10;99.90;;;;;;5113274;27;20043;-68
2023/05/09 12:22:39;;;;;;;6.85;3.47;;;17.00;99.90;;;;;;5111443;28;20039;-68
2023/05/09 12:25:07;;;;;;;7.50;3.25;;;16.90;99.90;;;;;;5113375;28;20373;-69
2023/05/09 12:27:37;;;;;;;10.65;3.92;;;16.90;99.90;;;;;;5111751;28;20036;-68
2023/05/09 12:30:09;;;;;;;7.43;3.65;;;16.90;99.90;;;;;;5111175;28;20039;-68
2023/05/09 12:32:37;;;;;;;8.23;3.53;;;17.00;99.90;;;;;;5111730;28;20036;-67
2023/05/09 12:35:04;;;;;;;7.15;2.47;;;17.00;99.90;;;;;;5111655;28;20039;-66
2023/05/09 12:37:33;;;;;;;6.90;3.42;;;17.00;99.90;;;;;;5110730;28;20046;-66
2023/05/09 12:40:10;;;;;;;5.45;2.90;;;16.90;99.90;;;;;;5111368;28;20051;-66
2023/05/09 12:42:36;;;;;;;5.03;3.30;;;16.90;99.90;;;;;;5111718;28;20043;-66
2023/05/09 12:45:03;;;;;;;5.97;3.15;;;16.70;99.90;;;;;;5112196;28;20544;-66